Timeline UpdatesTrip UpdatesNews PostsPvt PostsTravel TipsAdmin PostsConv PostsFollowed PostsChat RequestsBlog PostsPNR Posts

Disclaimer
Search
 
 
Wed Jul 30, 2014 20:40:15 ISTHomeTrainsΣChainsAtlasPNRForumGalleryNewsFAQTripsMembersLoginFeedback
No Recent News for this Train
Other Trains in the News **new
Latest...
⇐ Return Journey: Train# 54824

54823/Jodhpur Hisar passenger (UnReserved)

Oct 10 2013 (4:47PM)
Change Departure Station:
Change Arrival Station:
Post a Train Travel TipPost a Train Travel Tip **new
Post a Comment/Question/Picture/VideoPost a Comment/Question/Picture/Video
Pantry/Catering
✕ NO Pantry Car
✕ NO Catering
RSA - Rake Sharing
Rake/Coach Composition
7 general , 2 slr , total 9 coach.
Loco
ABR WDM - 3A.
News    PNR    Forum    Time-Table    Availability    Fare Chart    Map    Arr/Dep History    Trips    Gallery    ΣChains    X/O    Timeline    
Travel Time: 2h 32m    11 halts    Distance: 103 km    Avg Speed: 40 km/hr
Type: Passenger
Zone: NWR/North Western
Departs @ 11:10 (Avg 2m late)
Platform# ???
SMTWTFS
Jodhpur Junction/JU 
Arrives @ 13:42 (Avg 43m late)
Platform# ???
SMTWTFS
Merta Road Junction/MTD 

11 halts. 12 intermediate Stations between Jodhpur Junction and Merta Road Junction

Show ALL intermediate Stations  Show Old Time-Table

#CodeStation NameX/OArrivesAvgDepartsAvgHaltPFDay#KmSpeedElevZoneAddress
1JU»Jodhpur Junction (5)»  -11:10+2--10.028241mNWRJodhpur, Rajasthan
2RKBRaikabagh Palace Junction (2)  11:15+1811:17+302m--12.338237mNWRJodhpur, Rajasthan
3BNOBanarX  11:36+2711:38+292m--114.262213mNWRBanar, Rajasthan
4JWLJajiwal  11:46+2911:48+342m--122.567228mNWRJodhpur, Rajasthan
5AASAsranadaX  11:56+3411:58+362m--131.342251mNWRState Highway 58, Rajasthan
6KSWKheri Salwa  12:11+3212:13+332m--140.464269mNWRJajiwal, Rajasthan
7PPRPipar Road Junction  12:19+3512:21+392m--146.957272mNWRState Highway 58, Rajasthan
8SWFSathin Road  12:30+4012:32+442m--155.569284mNWRUMED, Rajasthan
9UMEDUmed  12:41+4612:43+512m--165.861308mNWRJodhpur, Rajasthan
10KXGKharia KhangarhX  12:53+4812:55+522m--176.033310mNWRKharia Khangar, Rajasthan
11GOTNGotan (3)  13:08+5013:10+542m--183.159323mNWRGotan, Rajasthan
12JOMJogi Magra (1)X  13:20+5413:22+572m1192.931335mNWRNagaur, Rajasthan
13MTD•Merta Road Junction (4)•  13:42+4313:47+465m--1103.3116322mNWRPhalodi, Rajasthan
14KQWKheduli (1)X  13:55+5313:57+532m--1118.717307mNWRRen, Rajasthan
15RENRen  14:04+5414:06+552m--1120.763307mNWRNagaur, Rajasthan
16JACJalsu  14:19+5314:21+552m--1134.448321mNWRNagaur, Rajasthan
17JACNJalsu NanakX  14:28+4414:30+442m--1140.017331mNWRREN, Rajasthan
18DNADegana Junction (4)  14:56+3114:59+393m--1147.375339mNWRDegana, Rajasthan
19KRCKiroda  15:09+4315:11+422m--1159.929351mNWRDegana, Rajasthan
20KHTUKhatu  15:37+2715:39+272m--1172.353359mNWRKhatu Khurd, Rajasthan
21CTKTChoti Khatu  15:45+3015:47+302m--1177.662338mNWRDegana, Rajasthan
22PWPirwa  16:00+2416:02+242m--1191.046337mNWRDegana, Rajasthan
23KKNAKhunkhuna  16:10+2216:12+212m--1197.263350mNWRState Highway 60, Rajasthan
24MBSKMarwar Balia  16:22+2216:24+222m--1207.656335mNWRMarwar, Rajasthan
25DIADidwana  16:30+1916:32+212m--1213.261342mNWRDidwana, Rajasthan
26SVOSanvrad  16:45+2416:47+242m--1226.463338mNWRDidwana, Rajasthan
27BLSDBalsamand  16:55+2016:57+202m--1234.864323mNWRDidwana, Rajasthan
28LAULadnun (1)  17:06+1617:08+172m--1244.335330mNWRNagaur District. 341306, Rajasthan
29JSHJaswantgarh  17:16+2117:18+212m--1249.050312mNWRSujangarh, Rajasthan
30SUJHSujangarh  17:24+1617:26+172m--1254.161318mNWRSujangarh, Rajasthan
31TLCTalchhapar  17:39+1817:41+202m--1267.470305mNWRSujangarh, Rajasthan
32PIHParhihara  17:52+2217:54+342m--1280.246312mNWRSujangarh, Rajasthan
33LOHALohaX  18:09+818:11+82m--1291.713318mNWRRatangarh, Rajasthan
34RTGHRatangarh JunctionX  18:50+1119:00+910m--1300.072309mNWRRatangarh, Rajasthan
35MIOMolisar  19:14+919:15+91m--1316.960310mNWRChuru, Rajasthan
36SMNNShri Makri Nath Nagar  19:21+519:22+51m--1323.039307mNWRChuru, Rajasthan
37JOHJuharpura  19:27+919:28+91m--1326.268302mNWRState Highway 69, Rajasthan
38DEPDepalsar  19:36+1119:38+112m--1335.238292mNWRChuru, Rajasthan
39CURChuru Junction (3)  19:50+1020:00+1110m--1342.880288mNWRChuru Junction, Rajasthan
40ASLUAslu  20:11+1620:13+152m--1357.453284mNWRNational Highway 65, Rajasthan
41SRSLSirsala20:23+420:24+41m--1366.353275mNWRNational Highway 65, Rajasthan
42DKXDudhwakharaX  20:30+1320:31+131m--1371.656262mNWRNational Highway 65, Rajasthan
43HYLHadyal  20:45+1220:46+131m--1384.756255mNWRMDR 97, Rajasthan
44DKWADokwa  20:54+1320:55+141m--1392.251251mNWRNational Highway 65, Rajasthan
45SDLPSadulpur Junction  21:05+1121:10+105m--1400.640239mNWRRajgarh, Rajasthan
46SURPSuratpura  21:16+1221:17+121m--1404.670239mNWRNational Highway 65, Rajasthan
47JUPJhunpa  21:31+1221:32+121m--1421.078225mNWRDist. Bhiwani 127046, Haryana
48SWNISiwani  21:47+1321:49+122m--1440.556210mNWRNational Highway 65, Haryana
49CRWCharaud  22:01+1122:02+111m--1451.634212mNWRNational Highway 65, Haryana
50HSRHisar Junction (6)  22:35+4---1470.5-215mNWRHisar, Haryana
Scroll to Top
Scroll to Bottom